createdAt,value
2018-07-30T00:04:33.602Z,3.90
2018-07-30T00:09:38.531Z,3.98
2018-07-30T00:14:43.254Z,3.67
2018-07-30T00:19:48.398Z,3.27
2018-07-30T00:24:53.039Z,4.33
2018-07-30T00:29:57.720Z,3.85
2018-07-30T00:35:01.938Z,3.55
2018-07-30T00:40:09.191Z,4.05
2018-07-30T00:45:14.135Z,3.80
2018-07-30T00:50:18.995Z,4.00
2018-07-30T00:55:23.702Z,3.67
2018-07-30T01:00:28.465Z,4.03
2018-07-30T01:05:33.150Z,4.42
2018-07-30T01:10:37.922Z,3.85
2018-07-30T01:15:42.661Z,4.20
2018-07-30T01:20:47.600Z,4.25
2018-07-30T01:25:53.196Z,4.12
2018-07-30T01:30:57.988Z,3.92
2018-07-30T01:36:02.962Z,4.12
2018-07-30T01:41:07.179Z,4.28
2018-07-30T01:46:12.315Z,4.15
2018-07-30T01:51:17.141Z,4.12
2018-07-30T01:56:21.970Z,3.60
2018-07-30T02:01:26.752Z,4.12
2018-07-30T02:06:31.551Z,3.80
2018-07-30T02:11:36.499Z,3.72
2018-07-30T02:16:41.820Z,3.95
2018-07-30T02:21:46.685Z,4.15
2018-07-30T02:26:51.386Z,4.37
2018-07-30T02:31:56.243Z,4.30
2018-07-30T02:37:01.230Z,4.20
2018-07-30T02:42:06.063Z,4.47
2018-07-30T02:47:10.991Z,4.42
2018-07-30T02:52:15.897Z,4.35
2018-07-30T02:57:20.747Z,4.10
2018-07-30T03:02:26.030Z,4.58
2018-07-30T03:07:30.593Z,4.28
2018-07-30T03:12:35.455Z,3.98
2018-07-30T03:17:40.279Z,4.15
2018-07-30T03:22:45.146Z,4.50
2018-07-30T03:27:49.851Z,4.10
2018-07-30T03:32:54.919Z,4.30
2018-07-30T03:37:59.852Z,3.90
2018-07-30T03:43:04.672Z,4.28
2018-07-30T03:48:09.281Z,4.80
2018-07-30T03:53:14.208Z,3.98
2018-07-30T03:58:19.348Z,4.25
2018-07-30T04:03:24.295Z,4.62
2018-07-30T04:08:29.185Z,4.42
2018-07-30T04:13:33.938Z,4.40
2018-07-30T04:18:38.873Z,4.25
2018-07-30T04:23:43.961Z,4.92
2018-07-30T04:28:48.558Z,4.62
2018-07-30T04:33:53.223Z,4.60
2018-07-30T04:38:57.454Z,4.33
2018-07-30T04:44:02.181Z,4.47
2018-07-30T04:49:07.116Z,4.30
2018-07-30T04:54:11.826Z,5.83
2018-07-30T04:59:16.675Z,4.17
2018-07-30T05:04:21.494Z,4.22
2018-07-30T05:09:26.373Z,4.17
2018-07-30T05:14:31.454Z,4.35
2018-07-30T05:19:36.593Z,4.35
2018-07-30T05:24:41.458Z,4.20
2018-07-30T05:29:46.317Z,4.40
2018-07-30T05:34:51.147Z,4.30
2018-07-30T05:39:55.857Z,4.70
2018-07-30T05:45:00.491Z,4.83
2018-07-30T05:50:05.492Z,4.50
2018-07-30T05:55:10.394Z,4.97
2018-07-30T06:00:15.347Z,4.53
2018-07-30T06:05:20.309Z,4.70
2018-07-30T06:10:25.121Z,4.40
2018-07-30T06:15:29.924Z,4.60
2018-07-30T06:20:34.790Z,4.97
2018-07-30T06:25:39.514Z,5.12
2018-07-30T06:30:44.362Z,5.30
2018-07-30T06:35:50.109Z,4.67
2018-07-30T06:41:01.296Z,5.28
2018-07-30T06:46:06.026Z,5.55
2018-07-30T06:51:10.794Z,5.20
2018-07-30T06:56:15.890Z,5.17
2018-07-30T07:01:21.260Z,5.17
2018-07-30T07:06:26.944Z,4.78
2018-07-30T07:11:31.863Z,5.22
2018-07-30T07:16:36.880Z,4.95
2018-07-30T07:21:41.613Z,5.47
2018-07-30T07:26:46.712Z,4.72
2018-07-30T07:31:51.305Z,5.05
2018-07-30T07:36:56.059Z,5.62
2018-07-30T07:42:00.682Z,5.97
2018-07-30T07:47:05.435Z,5.83
2018-07-30T07:52:10.157Z,6.50
2018-07-30T07:57:14.844Z,5.85
2018-07-30T08:02:19.634Z,6.10
2018-07-30T08:07:24.812Z,5.85
2018-07-30T08:12:29.797Z,5.60
2018-07-30T08:17:34.765Z,5.87
2018-07-30T08:22:39.512Z,5.85
2018-07-30T08:27:44.178Z,5.58
2018-07-30T08:32:48.877Z,5.35
2018-07-30T08:37:53.629Z,5.72
2018-07-30T08:42:58.458Z,6.17
2018-07-30T08:48:03.350Z,5.25
2018-07-30T08:53:08.136Z,4.33
2018-07-30T08:58:13.004Z,5.45
2018-07-30T09:03:17.666Z,5.20
2018-07-30T09:08:22.409Z,5.37
2018-07-30T09:13:27.191Z,6.25
2018-07-30T09:18:32.117Z,5.08
2018-07-30T09:23:36.967Z,5.35
2018-07-30T09:28:41.832Z,4.67
2018-07-30T09:33:47.155Z,4.90
2018-07-30T09:38:51.992Z,5.40
2018-07-30T09:43:56.854Z,4.75
2018-07-30T09:49:01.674Z,4.50
2018-07-30T09:54:06.421Z,4.85
2018-07-30T09:59:11.242Z,5.45
2018-07-30T10:04:16.081Z,4.85
2018-07-30T10:09:20.769Z,4.80
2018-07-30T10:14:26.453Z,6.42
2018-07-30T10:19:31.192Z,4.55
2018-07-30T10:24:36.681Z,4.80
2018-07-30T10:29:41.427Z,4.58
2018-07-30T10:34:46.338Z,4.30
2018-07-30T10:39:51.307Z,4.08
2018-07-30T10:44:56.215Z,4.40
2018-07-30T10:50:01.155Z,4.08
2018-07-30T10:55:06.814Z,4.12
2018-07-30T11:00:12.058Z,3.77
2018-07-30T11:05:16.732Z,4.47
2018-07-30T11:10:21.553Z,4.33
2018-07-30T11:15:26.222Z,4.03
2018-07-30T11:20:31.107Z,3.90
2018-07-30T11:25:35.668Z,3.90
2018-07-30T11:30:40.697Z,3.77
2018-07-30T11:35:45.757Z,3.80
2018-07-30T11:40:50.342Z,3.58
2018-07-30T11:45:55.240Z,3.47
2018-07-30T11:51:00.073Z,3.47
2018-07-30T11:56:05.017Z,3.80
2018-07-30T12:01:10.419Z,3.40
2018-07-30T12:06:15.555Z,3.70
2018-07-30T12:11:20.442Z,4.20
2018-07-30T12:16:24.800Z,3.60
2018-07-30T12:21:30.088Z,3.37
2018-07-30T12:26:34.945Z,2.90
2018-07-30T12:31:39.902Z,3.75
2018-07-30T12:36:44.654Z,3.40
2018-07-30T12:41:49.290Z,3.27
2018-07-30T12:46:54.109Z,3.10
2018-07-30T12:51:58.893Z,3.30
2018-07-30T12:57:03.628Z,3.00
2018-07-30T13:02:08.484Z,2.80
2018-07-30T13:07:13.217Z,3.00
2018-07-30T13:12:17.890Z,3.10
2018-07-30T13:17:22.708Z,2.62
2018-07-30T13:22:27.301Z,2.98
2018-07-30T13:27:32.059Z,2.87
2018-07-30T13:32:37.013Z,2.60
2018-07-30T13:37:41.699Z,2.90
2018-07-30T13:42:46.611Z,3.00
2018-07-30T13:47:51.516Z,3.05
2018-07-30T13:52:57.080Z,3.08
2018-07-30T13:58:02.590Z,2.90
2018-07-30T14:03:07.599Z,2.77
2018-07-30T14:08:12.415Z,2.87
2018-07-30T14:13:17.351Z,2.80
2018-07-30T14:18:22.084Z,3.12
2018-07-30T14:23:26.786Z,2.70
2018-07-30T14:28:31.822Z,2.75
2018-07-30T14:33:36.540Z,2.60
2018-07-30T14:38:41.232Z,2.72
2018-07-30T14:43:46.442Z,2.80
2018-07-30T14:48:52.181Z,3.05
2018-07-30T14:53:57.071Z,3.42
2018-07-30T14:59:02.633Z,2.75
2018-07-30T15:04:07.469Z,2.98
2018-07-30T15:09:13.980Z,2.90
2018-07-30T15:14:19.539Z,2.72
2018-07-30T15:19:24.273Z,2.62
2018-07-30T15:24:28.704Z,2.70
2018-07-30T15:29:33.402Z,3.20
2018-07-30T15:34:38.034Z,2.65
2018-07-30T15:39:42.777Z,2.77
2018-07-30T15:44:47.598Z,3.10
2018-07-30T15:49:52.553Z,2.95
2018-07-30T15:54:58.571Z,2.85
2018-07-30T16:05:09.677Z,3.30
2018-07-30T16:10:14.373Z,2.83
2018-07-30T16:15:19.750Z,3.00
2018-07-30T16:20:24.551Z,2.80
2018-07-30T16:25:29.383Z,2.75
2018-07-30T16:30:34.179Z,3.00
2018-07-30T16:35:38.975Z,3.05
2018-07-30T16:40:44.079Z,3.02
2018-07-30T16:45:49.185Z,3.27
2018-07-30T16:50:54.086Z,4.00
2018-07-30T16:55:58.979Z,3.05
2018-07-30T17:01:03.834Z,3.05
2018-07-30T17:06:08.780Z,3.37
2018-07-30T17:11:13.612Z,2.85
2018-07-30T17:16:18.607Z,2.65
2018-07-30T17:21:23.571Z,3.12
2018-07-30T17:26:28.222Z,3.40
2018-07-30T17:31:33.031Z,3.20
2018-07-30T17:36:37.725Z,3.42
2018-07-30T17:41:42.478Z,3.50
2018-07-30T17:46:47.646Z,3.50
2018-07-30T17:51:52.582Z,3.42
2018-07-30T17:56:57.816Z,3.42
2018-07-30T18:02:03.327Z,3.12
2018-07-30T18:07:08.226Z,3.17
2018-07-30T18:12:12.924Z,3.60
2018-07-30T18:17:17.723Z,3.10
2018-07-30T18:22:22.631Z,3.58
2018-07-30T18:27:28.511Z,3.35
2018-07-30T18:32:34.200Z,3.62
2018-07-30T18:37:38.406Z,3.30
2018-07-30T18:42:43.016Z,3.52
2018-07-30T18:47:48.727Z,3.50
2018-07-30T18:52:53.710Z,3.87
2018-07-30T18:57:59.166Z,3.65
2018-07-30T19:03:03.911Z,3.80
2018-07-30T19:08:08.645Z,3.52
2018-07-30T19:13:13.575Z,3.70
2018-07-30T19:18:19.067Z,4.00
2018-07-30T19:23:23.978Z,3.50
2018-07-30T19:28:28.944Z,3.20
2018-07-30T19:33:33.273Z,3.58
2018-07-30T19:38:38.037Z,3.37
2018-07-30T19:43:43.317Z,4.03
2018-07-30T19:48:48.211Z,3.30
2018-07-30T19:53:53.045Z,3.83
2018-07-30T19:58:58.161Z,3.55
2018-07-30T20:04:02.979Z,3.45
2018-07-30T20:09:10.521Z,3.62
2018-07-30T20:14:16.578Z,3.92
2018-07-30T20:19:21.207Z,3.55
2018-07-30T20:24:26.844Z,3.90
2018-07-30T20:29:31.546Z,3.75
2018-07-30T20:34:36.213Z,3.92
2018-07-30T20:39:40.888Z,3.90
2018-07-30T20:44:45.965Z,3.80
2018-07-30T20:49:51.252Z,4.10
2018-07-30T20:54:56.002Z,3.95
2018-07-30T21:00:00.795Z,3.95
2018-07-30T21:05:05.686Z,3.67
2018-07-30T21:10:10.423Z,3.55
2018-07-30T21:15:15.260Z,3.80
2018-07-30T21:20:20.382Z,3.90
2018-07-30T21:25:25.217Z,4.08
2018-07-30T21:30:30.066Z,3.87
2018-07-30T21:35:34.900Z,3.67
2018-07-30T21:40:40.992Z,3.90
2018-07-30T21:45:45.902Z,4.12
2018-07-30T21:50:50.729Z,3.55
2018-07-30T21:55:55.617Z,3.98
2018-07-30T22:01:00.478Z,4.03
2018-07-30T22:06:05.310Z,4.17
2018-07-30T22:11:09.993Z,3.95
2018-07-30T22:16:14.732Z,3.92
2018-07-30T22:21:20.043Z,4.12
2018-07-30T22:26:24.901Z,4.15
2018-07-30T22:31:29.779Z,3.45
2018-07-30T22:36:34.486Z,4.03
2018-07-30T22:41:40.668Z,4.03
2018-07-30T22:46:45.485Z,4.15
2018-07-30T22:51:50.292Z,3.92
2018-07-30T22:56:54.943Z,3.50
2018-07-30T23:02:00.514Z,3.70
2018-07-30T23:07:05.351Z,3.52
2018-07-30T23:12:10.296Z,3.72
2018-07-30T23:17:15.212Z,3.65
2018-07-30T23:22:19.970Z,3.85
2018-07-30T23:27:25.432Z,3.77
2018-07-30T23:32:30.384Z,4.40
2018-07-30T23:37:35.214Z,3.70
2018-07-30T23:42:39.978Z,3.65
2018-07-30T23:47:45.813Z,3.70
2018-07-30T23:52:51.294Z,3.70
2018-07-30T23:57:56.096Z,4.05
